Time;durP1;ratioP1;P1;durP2;ratioP2;P2;SDS_P1;SDS_P2;PMS_P1;PMS_P2;Temp;Humidity;BMP_temperature;BMP_pressure;BME280_temperature;BME280_humidity;BME280_pressure;Samples;Min_cycle;Max_cycle;Signal;HPM_P1;HPM_P2
2023/04/20 00:00:10;;;;;;;1.23;0.40;;;11.40;99.90;;;;;;4994990;28;20249;-85
2023/04/20 00:02:42;;;;;;;3.10;0.60;;;11.70;99.90;;;;;;4992908;28;20210;-84
2023/04/20 00:05:13;;;;;;;1.00;0.50;;;11.50;99.90;;;;;;4994129;28;20214;-84
2023/04/20 00:07:47;;;;;;;2.00;0.60;;;11.70;99.90;;;;;;4992999;28;20663;-83
2023/04/20 00:10:18;;;;;;;1.07;0.50;;;11.80;99.90;;;;;;4994123;28;20281;-85
2023/04/20 00:12:49;;;;;;;1.73;0.83;;;11.90;99.90;;;;;;4990131;28;20215;-84
2023/04/20 00:15:19;;;;;;;1.17;0.40;;;12.00;99.90;;;;;;4974724;28;20285;-84
2023/04/20 00:17:51;;;;;;;1.23;0.50;;;11.70;99.90;;;;;;4979044;28;20217;-85
2023/04/20 00:20:22;;;;;;;3.30;0.70;;;11.40;99.90;;;;;;4975692;28;20220;-86
2023/04/20 00:22:55;;;;;;;0.57;0.37;;;11.10;99.90;;;;;;4975649;28;20246;-84
2023/04/20 00:25:26;;;;;;;0.77;0.47;;;11.00;99.90;;;;;;4975516;28;20242;-86
2023/04/20 00:27:57;;;;;;;0.50;0.40;;;11.30;99.90;;;;;;4974683;28;20227;-86
2023/04/20 00:30:28;;;;;;;0.50;0.40;;;11.00;99.90;;;;;;4975766;28;20254;-87
2023/04/20 00:33:00;;;;;;;0.97;0.60;;;10.70;99.90;;;;;;4975651;28;20207;-86
2023/04/20 00:35:31;;;;;;;0.43;0.30;;;10.30;99.90;;;;;;4975367;28;20207;-86
2023/04/20 00:38:04;;;;;;;0.60;0.50;;;10.30;99.90;;;;;;4981597;28;20194;-87
2023/04/20 00:40:35;;;;;;;0.80;0.40;;;10.60;99.90;;;;;;5009543;28;20213;-87
2023/04/20 00:43:11;;;;;;;0.53;0.40;;;10.50;99.90;;;;;;5014479;28;20213;-86
2023/04/20 00:45:42;;;;;;;1.13;0.40;;;10.60;99.90;;;;;;5022928;28;20205;-86
2023/04/20 00:48:13;;;;;;;1.63;0.40;;;10.70;99.90;;;;;;4982251;28;20246;-85
2023/04/20 00:50:44;;;;;;;0.80;0.50;;;10.60;99.90;;;;;;5003322;28;20636;-86
2023/04/20 00:53:19;;;;;;;0.80;0.47;;;10.70;99.90;;;;;;4993079;28;20210;-85
2023/04/20 00:55:51;;;;;;;1.47;0.40;;;10.70;99.90;;;;;;4983894;28;20210;-86
2023/04/20 00:58:22;;;;;;;0.90;0.50;;;10.60;99.90;;;;;;5002702;28;20210;-84
2023/04/20 01:00:52;;;;;;;0.70;0.50;;;10.50;99.90;;;;;;4988641;28;20205;-83
2023/04/20 01:03:23;;;;;;;1.23;0.57;;;10.60;99.90;;;;;;5004999;28;20217;-85
2023/04/20 01:05:55;;;;;;;0.97;0.50;;;11.00;99.90;;;;;;5008615;28;20207;-85
2023/04/20 01:08:30;;;;;;;0.50;0.40;;;11.00;99.90;;;;;;4994357;28;20563;-84
2023/04/20 01:11:01;;;;;;;0.93;0.50;;;10.90;99.90;;;;;;4998917;28;20280;-85
2023/04/20 01:13:32;;;;;;;2.03;0.37;;;10.90;99.90;;;;;;4981371;28;20249;-86
2023/04/20 01:16:03;;;;;;;1.30;0.63;;;10.60;99.90;;;;;;4993691;28;20214;-85
2023/04/20 01:18:45;;;;;;;0.57;0.40;;;11.20;99.90;;;;;;4992865;28;20211;-84
2023/04/20 01:21:16;;;;;;;1.50;0.50;;;11.40;99.90;;;;;;4989639;28;20214;-84
2023/04/20 01:23:50;;;;;;;0.93;0.47;;;11.30;99.90;;;;;;4979107;28;20218;-87
2023/04/20 01:26:21;;;;;;;0.93;0.47;;;11.50;99.90;;;;;;5030113;28;20190;-86
2023/04/20 01:28:52;;;;;;;1.37;0.40;;;11.70;99.90;;;;;;5017132;28;20225;-87
2023/04/20 01:31:23;;;;;;;1.50;0.50;;;11.10;99.90;;;;;;5013752;28;20808;-86
2023/04/20 01:33:54;;;;;;;2.47;0.47;;;10.60;99.90;;;;;;5002165;28;20225;-86
2023/04/20 01:36:25;;;;;;;1.60;0.50;;;10.90;99.90;;;;;;4986876;28;20211;-87
2023/04/20 01:38:59;;;;;;;1.50;0.97;;;10.50;99.90;;;;;;4993432;28;20238;-86
2023/04/20 01:41:30;;;;;;;0.80;0.60;;;10.20;99.90;;;;;;4995491;28;20206;-85
2023/04/20 01:44:01;;;;;;;2.50;0.50;;;9.80;99.90;;;;;;5001758;28;20213;-96
2023/04/20 01:46:33;;;;;;;1.80;0.67;;;9.80;99.90;;;;;;4994060;28;20296;-89
2023/04/20 01:49:05;;;;;;;0.77;0.50;;;10.20;99.90;;;;;;4981828;28;20294;-90
2023/04/20 01:51:37;;;;;;;0.40;0.40;;;9.90;99.90;;;;;;4976875;28;20241;-90
2023/04/20 01:54:10;;;;;;;1.03;0.43;;;9.70;99.90;;;;;;4986247;28;20217;-88
2023/04/20 01:56:42;;;;;;;2.33;0.60;;;9.50;99.90;;;;;;5000168;28;20225;-91
2023/04/20 01:59:14;;;;;;;0.50;0.33;;;9.60;99.90;;;;;;4984066;28;20222;-89
2023/04/20 02:01:46;;;;;;;0.87;0.40;;;9.50;99.90;;;;;;4991366;28;20214;-89
2023/04/20 02:04:17;;;;;;;1.63;0.90;;;9.50;99.90;;;;;;5001601;28;20210;-89
2023/04/20 02:06:49;;;;;;;1.10;0.50;;;9.30;99.90;;;;;;5001473;28;20248;-89
2023/04/20 02:09:23;;;;;;;1.07;0.60;;;9.00;99.90;;;;;;5001441;28;20213;-89
2023/04/20 02:11:55;;;;;;;1.23;0.50;;;9.10;99.90;;;;;;4996431;28;20234;-89
2023/04/20 02:14:27;;;;;;;1.17;0.50;;;8.90;99.90;;;;;;4981182;28;20238;-88
2023/04/20 02:16:58;;;;;;;0.50;0.47;;;9.00;99.90;;;;;;4981469;28;20207;-89
2023/04/20 02:19:30;;;;;;;0.87;0.53;;;9.00;99.90;;;;;;4980939;28;20239;-89
2023/04/20 02:22:01;;;;;;;3.03;0.63;;;8.80;99.90;;;;;;5000619;28;20202;-89
2023/04/20 02:24:34;;;;;;;0.77;0.60;;;8.50;99.90;;;;;;5001774;28;20202;-89
2023/04/20 02:27:06;;;;;;;0.60;0.50;;;8.30;99.90;;;;;;5001801;28;20742;-89
2023/04/20 02:29:38;;;;;;;0.87;0.63;;;8.20;99.90;;;;;;5005908;28;20266;-90
2023/04/20 02:32:09;;;;;;;1.90;0.70;;;8.20;99.90;;;;;;5020562;28;20237;-89
2023/04/20 02:34:41;;;;;;;0.60;0.40;;;8.30;99.90;;;;;;5021113;28;20205;-90
2023/04/20 02:37:12;;;;;;;2.70;0.77;;;8.30;99.90;;;;;;5021052;28;20260;-90
2023/04/20 02:39:46;;;;;;;1.50;0.60;;;8.20;99.90;;;;;;5006833;28;20268;-91
2023/04/20 02:42:17;;;;;;;0.70;0.50;;;8.10;99.90;;;;;;4997628;28;20237;-91
2023/04/20 02:44:51;;;;;;;0.83;0.73;;;8.00;99.90;;;;;;5000879;28;20237;-91
2023/04/20 02:47:23;;;;;;;2.00;0.70;;;8.00;99.90;;;;;;4999804;28;20202;-91
2023/04/20 02:49:54;;;;;;;1.50;0.60;;;8.00;99.90;;;;;;5001891;28;20708;-90
2023/04/20 02:52:25;;;;;;;1.13;0.63;;;7.80;99.90;;;;;;4995044;28;20226;-89
2023/04/20 02:54:59;;;;;;;1.87;0.73;;;7.70;99.90;;;;;;4990441;28;20218;-90
2023/04/20 02:57:31;;;;;;;2.47;0.60;;;7.60;99.90;;;;;;4995336;28;20202;-90
2023/04/20 03:00:02;;;;;;;1.07;0.77;;;7.60;99.90;;;;;;4998364;28;20221;-90
2023/04/20 03:02:33;;;;;;;1.83;0.80;;;7.50;99.90;;;;;;4997112;28;20253;-89
2023/04/20 03:05:06;;;;;;;1.33;0.73;;;7.40;99.90;;;;;;4991986;28;20222;-88
2023/04/20 03:07:37;;;;;;;1.73;0.83;;;7.40;99.90;;;;;;4984989;28;20207;-90
2023/04/20 03:10:12;;;;;;;0.80;0.60;;;7.30;99.90;;;;;;4985663;28;20276;-89
2023/04/20 03:12:44;;;;;;;2.13;0.70;;;7.30;99.90;;;;;;4987086;28;20234;-89
2023/04/20 03:15:16;;;;;;;1.30;0.63;;;7.20;99.90;;;;;;4988542;28;20214;-87
2023/04/20 03:17:47;;;;;;;1.47;0.70;;;7.10;99.90;;;;;;4998619;28;20839;-89
2023/04/20 03:20:19;;;;;;;2.50;0.80;;;7.10;99.90;;;;;;4996395;28;20909;-89
2023/04/20 03:22:50;;;;;;;1.60;0.70;;;7.00;99.90;;;;;;4993274;28;20233;-89
2023/04/20 03:25:24;;;;;;;2.13;0.63;;;7.00;99.90;;;;;;4991226;28;20293;-89
2023/04/20 03:27:56;;;;;;;3.80;0.70;;;6.90;99.90;;;;;;4981571;28;20215;-89
2023/04/20 03:30:27;;;;;;;2.27;0.93;;;6.90;99.90;;;;;;4990898;28;20428;-89
2023/04/20 03:32:59;;;;;;;1.63;0.90;;;6.80;99.90;;;;;;5009914;28;20238;-89
2023/04/20 03:35:31;;;;;;;1.37;0.70;;;6.80;99.90;;;;;;5014546;28;20213;-90
2023/04/20 03:38:03;;;;;;;2.17;1.00;;;6.80;99.90;;;;;;5008852;28;20208;-89
2023/04/20 03:40:37;;;;;;;3.37;0.90;;;6.70;99.90;;;;;;4990253;28;20214;-91
2023/04/20 03:43:10;;;;;;;2.70;0.83;;;6.70;99.90;;;;;;4997381;28;20655;-89
2023/04/20 03:45:41;;;;;;;0.70;0.60;;;6.60;99.90;;;;;;4998116;28;20283;-89
2023/04/20 03:48:12;;;;;;;1.87;0.80;;;6.60;99.90;;;;;;4988750;28;20301;-90
2023/04/20 03:50:43;;;;;;;2.20;0.90;;;6.50;99.90;;;;;;4987717;28;20202;-90
2023/04/20 03:53:15;;;;;;;1.67;0.83;;;6.50;99.90;;;;;;4989926;28;20238;-90
2023/04/20 03:55:48;;;;;;;2.13;0.70;;;6.50;99.90;;;;;;4994197;28;20210;-90
2023/04/20 03:58:20;;;;;;;4.07;0.80;;;6.40;99.90;;;;;;4991535;28;20225;-91
2023/04/20 04:00:51;;;;;;;2.77;0.70;;;6.40;99.90;;;;;;4998400;28;20553;-89
2023/04/20 04:03:23;;;;;;;1.63;0.77;;;6.30;99.90;;;;;;4997117;28;20539;-90
2023/04/20 04:05:55;;;;;;;3.37;0.80;;;6.30;99.90;;;;;;4999368;28;20206;-90
2023/04/20 04:08:27;;;;;;;1.10;0.70;;;6.30;99.90;;;;;;4994286;28;20659;-90
2023/04/20 04:11:01;;;;;;;4.37;1.23;;;6.20;99.90;;;;;;4996265;28;20226;-89
2023/04/20 04:13:32;;;;;;;2.37;0.83;;;6.20;99.90;;;;;;4996772;28;20691;-89
2023/04/20 04:16:05;;;;;;;2.23;0.77;;;6.10;99.90;;;;;;4975521;28;20623;-88
2023/04/20 04:18:37;;;;;;;2.13;1.00;;;6.20;99.90;;;;;;4987340;28;20203;-91
2023/04/20 04:21:09;;;;;;;3.13;0.93;;;6.20;99.90;;;;;;4995710;28;20202;-89
2023/04/20 04:23:41;;;;;;;1.97;0.70;;;6.10;99.90;;;;;;4990954;28;20294;-88
2023/04/20 04:26:16;;;;;;;2.67;0.73;;;6.10;99.90;;;;;;4976375;28;20211;-88
2023/04/20 04:28:48;;;;;;;3.43;1.10;;;6.10;99.90;;;;;;4986502;28;20213;-88
2023/04/20 04:31:20;;;;;;;1.00;0.90;;;6.10;99.90;;;;;;5004894;28;20663;-87
2023/04/20 04:33:52;;;;;;;3.33;0.90;;;6.10;99.90;;;;;;4995517;28;20234;-89
2023/04/20 04:36:25;;;;;;;4.00;1.70;;;6.00;99.90;;;;;;4995466;28;20206;-88
2023/04/20 04:38:57;;;;;;;5.00;1.30;;;6.00;99.90;;;;;;4995144;28;20210;-91
2023/04/20 04:41:31;;;;;;;3.77;0.90;;;6.00;99.90;;;;;;5014620;28;20256;-90
2023/04/20 04:44:04;;;;;;;1.97;0.73;;;5.90;99.90;;;;;;5016645;28;20263;-90
2023/04/20 04:46:36;;;;;;;1.33;0.80;;;5.90;99.90;;;;;;4999247;28;20198;-91
2023/04/20 04:49:09;;;;;;;1.53;0.70;;;5.80;99.90;;;;;;4983499;28;20206;-90
2023/04/20 04:51:41;;;;;;;1.53;0.83;;;5.80;99.90;;;;;;4986956;28;20211;-89
2023/04/20 04:54:13;;;;;;;1.60;0.80;;;5.80;99.90;;;;;;4990078;28;20238;-90
2023/04/20 04:56:47;;;;;;;1.07;0.70;;;5.80;99.90;;;;;;4988337;28;20858;-90
2023/04/20 04:59:19;;;;;;;1.50;0.80;;;5.70;99.90;;;;;;4991736;28;20225;-89
2023/04/20 05:01:51;;;;;;;3.90;1.30;;;5.70;99.90;;;;;;4983358;28;20202;-90
2023/04/20 05:04:23;;;;;;;1.97;1.30;;;5.70;99.90;;;;;;4980821;28;20218;-89
2023/04/20 05:06:54;;;;;;;1.90;1.10;;;5.70;99.90;;;;;;4978282;28;20215;-89
2023/04/20 05:09:32;;;;;;;3.07;1.30;;;5.70;99.90;;;;;;4982002;28;20218;-90
2023/04/20 05:12:07;;;;;;;2.70;1.40;;;5.70;99.90;;;;;;4992831;28;20229;-90
2023/04/20 05:14:38;;;;;;;3.83;1.23;;;5.80;99.90;;;;;;4996289;28;20232;-89
2023/04/20 05:17:10;;;;;;;1.93;1.13;;;5.80;99.90;;;;;;4993967;28;20232;-90
2023/04/20 05:19:41;;;;;;;1.77;1.20;;;5.80;99.90;;;;;;4993943;28;20240;-90
2023/04/20 05:22:13;;;;;;;1.87;1.10;;;5.80;99.90;;;;;;4990945;28;20205;-89
2023/04/20 05:24:44;;;;;;;2.73;1.33;;;5.90;99.90;;;;;;4993841;28;20226;-89
2023/04/20 05:27:18;;;;;;;1.90;1.20;;;5.80;99.90;;;;;;4986360;28;20218;-89
2023/04/20 05:29:50;;;;;;;2.20;1.00;;;5.90;99.90;;;;;;4998273;28;20281;-87
2023/04/20 05:32:21;;;;;;;2.57;0.97;;;5.90;99.90;;;;;;4993667;28;20256;-90
2023/04/20 05:34:53;;;;;;;2.07;0.97;;;5.80;99.90;;;;;;4998316;28;20325;-90
2023/04/20 05:37:24;;;;;;;4.37;1.00;;;5.80;99.90;;;;;;4986350;28;20269;-92
2023/04/20 05:39:55;;;;;;;2.20;1.00;;;5.70;99.90;;;;;;5003593;28;20202;-92
2023/04/20 05:42:29;;;;;;;1.73;1.03;;;5.80;99.90;;;;;;5015576;28;20246;-90
2023/04/20 05:45:00;;;;;;;1.27;0.87;;;5.70;99.90;;;;;;5019513;28;20548;-90
2023/04/20 05:47:32;;;;;;;1.97;0.90;;;5.70;99.90;;;;;;5003346;28;20215;-92
2023/04/20 05:50:04;;;;;;;1.83;1.03;;;5.60;99.90;;;;;;5000536;28;20201;-92
2023/04/20 05:52:36;;;;;;;1.20;0.70;;;5.60;99.90;;;;;;4992408;28;20723;-90
2023/04/20 05:55:08;;;;;;;4.53;1.03;;;5.60;99.90;;;;;;4999884;28;20277;-92
2023/04/20 05:57:43;;;;;;;1.83;1.10;;;5.50;99.90;;;;;;4994922;28;20218;-91
2023/04/20 06:00:17;;;;;;;1.63;1.00;;;5.50;99.90;;;;;;4997871;28;20203;-91
2023/04/20 06:02:48;;;;;;;3.17;1.00;;;5.40;99.90;;;;;;4998421;28;20211;-91
2023/04/20 06:05:20;;;;;;;1.00;0.87;;;5.40;99.90;;;;;;4995365;28;20199;-92
2023/04/20 06:07:52;;;;;;;3.43;1.17;;;5.40;99.90;;;;;;5000187;28;20210;-92
2023/04/20 06:10:24;;;;;;;2.80;1.20;;;5.40;99.90;;;;;;5012669;28;20198;-90
2023/04/20 06:12:58;;;;;;;2.13;1.10;;;5.40;99.90;;;;;;4995110;28;20269;-91
2023/04/20 06:15:31;;;;;;;3.73;1.20;;;5.50;99.90;;;;;;4994547;28;20202;-90
2023/04/20 06:18:02;;;;;;;2.33;1.17;;;5.50;99.90;;;;;;4990486;28;20210;-90
2023/04/20 06:20:34;;;;;;;1.87;0.93;;;5.50;99.90;;;;;;4994334;28;20644;-89
2023/04/20 06:23:05;;;;;;;2.97;1.00;;;5.50;99.90;;;;;;4998141;28;20868;-91
2023/04/20 06:25:38;;;;;;;2.10;1.00;;;5.50;99.90;;;;;;4993799;28;20205;-90
2023/04/20 06:28:12;;;;;;;1.77;1.07;;;5.40;99.90;;;;;;4992752;28;20317;-90
2023/04/20 06:30:43;;;;;;;1.67;0.83;;;5.40;99.90;;;;;;4991632;28;20198;-90
2023/04/20 06:33:16;;;;;;;2.53;0.77;;;5.40;99.90;;;;;;4992898;28;20250;-90
2023/04/20 06:35:47;;;;;;;2.30;1.10;;;5.40;99.90;;;;;;4993901;28;20234;-91
2023/04/20 06:38:19;;;;;;;3.87;1.37;;;5.40;99.90;;;;;;4995280;28;20687;-91
2023/04/20 06:40:52;;;;;;;1.57;1.10;;;5.30;99.90;;;;;;5008468;28;20572;-90
2023/04/20 06:43:25;;;;;;;4.30;1.17;;;5.30;99.90;;;;;;5015837;28;20623;-91
2023/04/20 06:45:57;;;;;;;1.70;1.07;;;5.30;99.90;;;;;;4987417;28;20340;-91
2023/04/20 06:48:29;;;;;;;1.57;1.00;;;5.30;99.90;;;;;;4983053;28;20215;-93
2023/04/20 06:51:02;;;;;;;2.73;0.90;;;5.20;99.90;;;;;;4996590;28;20221;-93
2023/04/20 06:53:34;;;;;;;2.97;0.97;;;5.20;99.90;;;;;;4985236;28;20290;-91
2023/04/20 06:56:06;;;;;;;1.80;1.00;;;5.10;99.90;;;;;;4997281;28;20218;-91
2023/04/20 06:58:40;;;;;;;1.83;0.97;;;5.10;99.90;;;;;;4993463;28;20214;-91
2023/04/20 07:01:11;;;;;;;4.47;1.27;;;5.10;99.90;;;;;;4986499;28;20218;-91
2023/04/20 07:03:45;;;;;;;1.63;1.03;;;5.00;99.90;;;;;;4983312;28;20278;-92
2023/04/20 07:06:18;;;;;;;2.07;1.07;;;5.00;99.90;;;;;;4992837;28;20206;-92
2023/04/20 07:08:50;;;;;;;1.27;0.77;;;5.00;99.90;;;;;;4980646;28;20708;-91
2023/04/20 07:11:22;;;;;;;1.43;1.00;;;5.00;99.90;;;;;;4992819;28;20206;-92
2023/04/20 07:13:56;;;;;;;3.07;1.00;;;4.90;99.90;;;;;;4997951;28;20607;-92
2023/04/20 07:16:27;;;;;;;1.20;0.97;;;4.90;99.90;;;;;;4992151;28;20229;-91
2023/04/20 07:18:59;;;;;;;1.57;1.00;;;4.90;99.90;;;;;;4979373;28;20258;-92
2023/04/20 07:21:32;;;;;;;3.57;1.47;;;4.90;99.90;;;;;;4995041;28;20210;-90
2023/04/20 07:24:03;;;;;;;1.17;1.07;;;4.90;99.90;;;;;;4999660;28;20203;-89
2023/04/20 07:26:35;;;;;;;2.40;0.90;;;4.90;99.90;;;;;;4997498;28;20256;-90
2023/04/20 07:29:08;;;;;;;2.83;0.87;;;4.80;99.90;;;;;;4992577;28;20206;-91
2023/04/20 07:31:39;;;;;;;2.43;1.10;;;4.80;99.90;;;;;;4994227;28;20220;-90
2023/04/20 07:34:11;;;;;;;2.37;1.20;;;4.70;99.90;;;;;;5003613;28;20690;-91
2023/04/20 07:36:43;;;;;;;1.80;0.97;;;4.70;99.90;;;;;;5001795;28;20202;-91
2023/04/20 07:39:15;;;;;;;2.10;1.10;;;4.70;99.90;;;;;;4996989;28;20511;-90
2023/04/20 07:41:47;;;;;;;2.13;0.80;;;4.70;99.90;;;;;;4991206;28;20198;-91
2023/04/20 07:44:21;;;;;;;3.40;1.20;;;4.60;99.90;;;;;;4996075;28;20219;-91
2023/04/20 07:46:53;;;;;;;2.47;0.97;;;4.60;99.90;;;;;;5005316;28;20217;-91
2023/04/20 07:49:26;;;;;;;2.03;1.10;;;4.60;99.90;;;;;;5015992;28;20208;-91
2023/04/20 07:51:58;;;;;;;3.13;1.13;;;4.50;99.90;;;;;;5022170;28;20273;-92
2023/04/20 07:54:45;;;;;;;2.27;1.30;;;4.50;99.90;;;;;;5003134;28;20230;-92
2023/04/20 07:57:17;;;;;;;3.03;0.87;;;4.50;99.90;;;;;;5002222;28;20261;-94
2023/04/20 07:59:51;;;;;;;2.20;1.00;;;4.50;99.90;;;;;;4995116;28;20218;-92
2023/04/20 08:02:24;;;;;;;2.77;1.07;;;4.50;99.90;;;;;;4993284;28;20297;-92
2023/04/20 08:04:56;;;;;;;2.23;1.30;;;4.40;99.90;;;;;;4998314;28;20282;-93
2023/04/20 08:07:28;;;;;;;3.03;1.83;;;4.50;99.90;;;;;;4996700;28;20216;-93
2023/04/20 08:10:01;;;;;;;2.80;1.07;;;4.40;99.90;;;;;;4997471;28;20229;-93
2023/04/20 08:12:33;;;;;;;2.20;1.20;;;4.40;99.90;;;;;;4997476;28;20256;-91
2023/04/20 08:15:07;;;;;;;3.60;1.40;;;4.40;99.90;;;;;;4982352;28;20231;-92
2023/04/20 08:17:39;;;;;;;3.47;1.67;;;4.40;99.90;;;;;;4991212;28;20292;-91
2023/04/20 08:20:12;;;;;;;2.00;1.20;;;4.40;99.90;;;;;;5004664;28;20206;-90
2023/04/20 08:22:44;;;;;;;4.93;1.20;;;4.30;99.90;;;;;;5013825;28;20363;-91
2023/04/20 08:25:15;;;;;;;3.80;1.27;;;4.30;99.90;;;;;;4996708;28;20207;-91
2023/04/20 08:27:47;;;;;;;3.27;1.20;;;4.30;99.90;;;;;;4995451;28;20222;-89
2023/04/20 08:30:21;;;;;;;4.00;1.10;;;4.20;99.90;;;;;;4979425;28;20207;-91
2023/04/20 08:32:53;;;;;;;4.30;1.20;;;4.20;99.90;;;;;;4995911;28;20202;-89
2023/04/20 08:35:24;;;;;;;2.70;1.10;;;4.20;99.90;;;;;;4996103;28;20234;-89
2023/04/20 08:37:56;;;;;;;3.60;0.90;;;4.20;99.90;;;;;;4995292;28;20663;-91
2023/04/20 08:40:28;;;;;;;1.67;1.10;;;4.10;99.90;;;;;;5007610;28;20197;-90
2023/04/20 08:43:00;;;;;;;3.60;1.30;;;4.10;99.90;;;;;;5016549;28;20206;-86
2023/04/20 08:45:34;;;;;;;2.40;1.27;;;4.10;99.90;;;;;;5000525;28;20218;-90
2023/04/20 08:48:09;;;;;;;2.53;1.20;;;4.10;99.90;;;;;;4999195;28;20234;-90
2023/04/20 08:50:43;;;;;;;3.93;1.63;;;4.20;99.90;;;;;;5000924;28;20933;-89
2023/04/20 08:53:15;;;;;;;2.67;1.23;;;4.10;99.90;;;;;;5002619;28;20237;-90
2023/04/20 08:55:46;;;;;;;1.50;1.10;;;4.10;99.90;;;;;;5002430;28;20242;-88
2023/04/20 08:58:18;;;;;;;2.00;1.03;;;4.10;99.90;;;;;;4999594;28;20213;-89
2023/04/20 09:00:52;;;;;;;1.70;1.27;;;4.00;99.90;;;;;;4995173;28;20206;-91
2023/04/20 09:03:37;;;;;;;2.80;1.30;;;4.00;99.90;;;;;;4991042;28;20687;-91
2023/04/20 09:06:15;;;;;;;2.03;1.10;;;4.00;99.90;;;;;;4986433;28;20211;-90
2023/04/20 09:08:48;;;;;;;3.00;1.03;;;3.90;99.90;;;;;;4982159;28;20217;-93
2023/04/20 09:11:23;;;;;;;2.03;1.20;;;3.90;99.90;;;;;;4994999;28;20734;-91
2023/04/20 09:14:03;;;;;;;3.73;1.40;;;3.90;99.90;;;;;;5006966;28;20197;-89
2023/04/20 09:16:38;;;;;;;3.47;1.27;;;3.90;99.90;;;;;;4994970;28;20263;-91
2023/04/20 09:19:09;;;;;;;3.60;1.70;;;3.90;99.90;;;;;;4994768;28;20311;-91
2023/04/20 09:21:51;;;;;;;1.13;0.90;;;3.90;99.90;;;;;;4984831;28;20225;-91
2023/04/20 09:24:23;;;;;;;1.93;1.07;;;3.80;99.90;;;;;;4992133;28;20206;-90
2023/04/20 09:26:55;;;;;;;3.53;1.07;;;3.80;99.90;;;;;;4979629;28;20228;-90
2023/04/20 09:29:27;;;;;;;4.47;0.80;;;3.70;99.90;;;;;;4995165;28;20217;-91
2023/04/20 09:32:01;;;;;;;1.77;1.30;;;3.70;99.90;;;;;;4995241;28;20214;-89
2023/04/20 09:34:43;;;;;;;2.43;1.10;;;3.70;99.90;;;;;;4994991;28;20247;-89
2023/04/20 09:37:17;;;;;;;2.97;1.63;;;3.70;99.90;;;;;;4994754;28;20206;-89
2023/04/20 09:39:49;;;;;;;2.80;1.40;;;3.70;99.90;;;;;;4989241;28;20698;-90
2023/04/20 09:42:20;;;;;;;3.83;1.10;;;3.70;99.90;;;;;;5001992;28;20683;-90
2023/04/20 09:44:52;;;;;;;2.77;1.00;;;3.70;99.90;;;;;;4979236;28;20214;-88
2023/04/20 09:47:28;;;;;;;2.87;1.37;;;3.60;99.90;;;;;;4976004;28;20237;-92
2023/04/20 09:50:01;;;;;;;1.67;1.00;;;3.60;99.90;;;;;;4982947;28;20210;-90
2023/04/20 09:52:49;;;;;;;3.73;1.00;;;3.60;99.90;;;;;;5023195;28;20190;-89
2023/04/20 09:55:22;;;;;;;2.73;1.13;;;3.60;99.90;;;;;;5016861;28;20234;-89
2023/04/20 09:57:55;;;;;;;3.83;1.03;;;3.50;99.90;;;;;;5009579;28;20220;-90
2023/04/20 10:00:29;;;;;;;2.57;1.10;;;3.50;99.90;;;;;;4982948;28;20630;-90
2023/04/20 10:03:02;;;;;;;2.53;1.10;;;3.50;99.90;;;;;;4994515;28;20206;-90
2023/04/20 10:05:38;;;;;;;2.83;1.30;;;3.50;99.90;;;;;;4994512;28;20213;-91
2023/04/20 10:08:10;;;;;;;3.50;1.23;;;3.40;99.90;;;;;;4993252;28;20213;-91
2023/04/20 10:10:46;;;;;;;3.23;1.10;;;3.40;99.90;;;;;;4983579;28;20269;-90
2023/04/20 10:13:20;;;;;;;4.27;1.27;;;3.40;99.90;;;;;;4987487;28;20635;-91
2023/04/20 10:15:52;;;;;;;3.67;1.17;;;3.40;99.90;;;;;;4999407;28;20249;-90
2023/04/20 10:18:27;;;;;;;3.17;1.10;;;3.40;99.90;;;;;;4996248;28;20214;-91
2023/04/20 10:21:08;;;;;;;3.30;1.20;;;3.30;99.90;;;;;;4995115;28;20256;-90
2023/04/20 10:23:49;;;;;;;3.03;1.10;;;3.30;99.90;;;;;;4979028;28;20211;-92
2023/04/20 10:26:21;;;;;;;3.60;1.00;;;3.30;99.90;;;;;;4988620;28;20206;-92
2023/04/20 10:28:52;;;;;;;1.97;1.17;;;3.20;99.90;;;;;;4996165;28;20218;-91
2023/04/20 10:31:24;;;;;;;6.67;1.20;;;3.20;99.90;;;;;;5007757;28;20214;-91
2023/04/20 10:33:58;;;;;;;2.43;1.03;;;3.30;99.90;;;;;;4996984;28;20236;-91
2023/04/20 10:36:32;;;;;;;4.40;1.30;;;3.30;99.90;;;;;;4997798;28;20597;-91
2023/04/20 10:39:16;;;;;;;2.30;1.07;;;3.40;99.90;;;;;;4996674;28;20721;-91
2023/04/20 10:41:54;;;;;;;1.63;1.13;;;3.30;99.90;;;;;;4997714;28;20206;-90
2023/04/20 10:44:27;;;;;;;2.63;1.00;;;3.30;99.90;;;;;;4997636;28;20207;-90
2023/04/20 10:46:59;;;;;;;5.63;1.47;;;3.30;99.90;;;;;;4998703;28;20210;-91
2023/04/20 10:49:33;;;;;;;2.63;1.20;;;3.20;99.90;;;;;;4997885;28;20207;-90
2023/04/20 10:52:05;;;;;;;5.27;1.07;;;3.20;99.90;;;;;;4997443;28;20736;-91
2023/04/20 10:54:39;;;;;;;3.37;1.00;;;3.20;99.90;;;;;;4997401;28;20214;-90
2023/04/20 10:57:17;;;;;;;2.73;1.00;;;3.20;99.90;;;;;;4997593;28;20244;-88
2023/04/20 10:59:49;;;;;;;1.70;0.90;;;3.20;99.90;;;;;;5012790;28;20209;-89
2023/04/20 11:02:21;;;;;;;3.80;1.60;;;3.10;99.90;;;;;;4986891;28;20210;-90
2023/04/20 11:04:59;;;;;;;4.23;1.20;;;3.10;99.90;;;;;;4993472;28;20905;-89
2023/04/20 11:07:32;;;;;;;2.23;1.10;;;3.20;99.90;;;;;;4999568;28;20209;-91
2023/04/20 11:10:04;;;;;;;2.20;1.10;;;3.20;99.90;;;;;;5017144;28;20670;-90
2023/04/20 11:12:41;;;;;;;3.30;1.17;;;3.20;99.90;;;;;;5017410;28;20273;-91
2023/04/20 11:15:13;;;;;;;4.27;1.00;;;3.30;99.90;;;;;;5008561;28;20256;-92
2023/04/20 11:17:45;;;;;;;2.70;1.00;;;3.30;99.90;;;;;;4980959;28;20241;-91
2023/04/20 11:20:19;;;;;;;2.33;1.10;;;3.30;99.90;;;;;;5000011;28;20241;-90
2023/04/20 11:22:58;;;;;;;1.87;0.93;;;3.40;99.90;;;;;;4999734;28;20206;-90
2023/04/20 11:25:30;;;;;;;2.13;0.90;;;3.40;99.90;;;;;;4995540;28;20212;-91
2023/04/20 11:28:08;;;;;;;2.37;0.97;;;3.40;99.90;;;;;;4996214;28;20218;-90
2023/04/20 11:30:43;;;;;;;3.57;1.00;;;3.40;99.90;;;;;;4986020;28;20304;-92
2023/04/20 11:33:16;;;;;;;3.83;1.07;;;3.40;99.90;;;;;;4997075;28;20217;-91
2023/04/20 11:35:50;;;;;;;1.47;0.77;;;3.50;99.90;;;;;;4996918;28;20221;-91
2023/04/20 11:38:32;;;;;;;3.10;1.00;;;3.50;99.90;;;;;;4996513;28;20201;-92
2023/04/20 11:41:06;;;;;;;2.40;1.20;;;3.50;99.90;;;;;;4995207;28;20206;-91
2023/04/20 11:43:38;;;;;;;2.87;0.90;;;3.60;99.90;;;;;;4997062;28;20212;-91
2023/04/20 11:46:16;;;;;;;3.07;1.10;;;3.60;99.90;;;;;;4997078;28;20213;-90
2023/04/20 11:48:49;;;;;;;2.83;1.00;;;3.60;99.90;;;;;;4989017;28;20287;-89
2023/04/20 11:51:23;;;;;;;2.77;1.00;;;3.50;99.90;;;;;;4983581;28;20208;-90
2023/04/20 11:53:55;;;;;;;2.17;0.90;;;3.60;99.90;;;;;;5010732;28;20194;-88
2023/04/20 11:56:26;;;;;;;3.30;0.90;;;3.60;99.90;;;;;;5009133;28;20252;-90
2023/04/20 11:58:58;;;;;;;4.67;1.07;;;3.50;99.90;;;;;;5002503;28;20216;-90
2023/04/20 12:01:29;;;;;;;5.50;1.20;;;3.50;99.90;;;;;;4987915;28;20253;-89
2023/04/20 12:04:00;;;;;;;3.13;1.13;;;3.50;99.90;;;;;;4990057;28;20207;-90
2023/04/20 12:06:34;;;;;;;2.80;1.10;;;3.40;99.90;;;;;;4997279;28;20293;-89
2023/04/20 12:09:07;;;;;;;3.17;0.90;;;3.40;99.90;;;;;;4996080;28;20297;-91
2023/04/20 12:11:38;;;;;;;3.17;1.20;;;3.40;99.90;;;;;;5009192;28;20202;-90
2023/04/20 12:14:10;;;;;;;2.03;0.97;;;3.30;99.90;;;;;;4999266;28;20338;-91
2023/04/20 12:16:42;;;;;;;2.87;1.20;;;3.30;99.90;;;;;;4976433;28;20297;-92
2023/04/20 12:19:14;;;;;;;2.97;1.50;;;3.20;99.90;;;;;;4975834;28;20287;-91
2023/04/20 12:21:48;;;;;;;4.00;0.80;;;3.10;99.90;;;;;;4975791;28;20297;-90
2023/04/20 12:24:20;;;;;;;1.47;0.87;;;3.10;99.90;;;;;;4976797;28;20661;-91
2023/04/20 12:26:52;;;;;;;2.77;1.10;;;3.00;99.90;;;;;;4976613;28;20273;-91
2023/04/20 12:29:24;;;;;;;4.43;1.50;;;3.10;99.90;;;;;;4976093;28;20219;-91
2023/04/20 12:31:55;;;;;;;2.33;0.87;;;3.00;99.90;;;;;;4976889;28;20207;-92
2023/04/20 12:34:27;;;;;;;2.20;0.90;;;3.00;99.90;;;;;;4976342;28;20210;-91
2023/04/20 12:37:02;;;;;;;2.90;1.07;;;2.90;99.90;;;;;;4975955;28;20290;-91
2023/04/20 12:39:33;;;;;;;3.23;1.10;;;2.90;99.90;;;;;;4975734;28;20241;-92
2023/04/20 12:42:05;;;;;;;3.17;1.00;;;2.90;99.90;;;;;;4976595;28;20211;-92
2023/04/20 12:44:36;;;;;;;1.97;0.80;;;2.80;99.90;;;;;;4975843;28;20206;-92
2023/04/20 12:47:08;;;;;;;5.27;1.30;;;2.80;99.90;;;;;;4976453;28;20213;-90
2023/04/20 12:49:39;;;;;;;2.00;1.00;;;2.80;99.90;;;;;;4976245;28;20203;-89
2023/04/20 12:52:13;;;;;;;3.80;1.30;;;2.70;99.90;;;;;;4997704;28;20210;-90
2023/04/20 12:54:45;;;;;;;1.93;1.30;;;2.70;99.90;;;;;;4980820;28;20298;-90
2023/04/20 12:57:16;;;;;;;4.03;1.10;;;2.70;99.90;;;;;;4995236;28;20234;-90
2023/04/20 12:59:48;;;;;;;4.90;1.10;;;2.70;99.90;;;;;;4978831;28;20211;-90
2023/04/20 13:02:19;;;;;;;2.97;1.40;;;2.70;99.90;;;;;;4975738;28;20262;-91
2023/04/20 13:04:51;;;;;;;3.23;1.30;;;2.60;99.90;;;;;;4988916;28;20310;-90
2023/04/20 13:07:26;;;;;;;1.60;1.10;;;2.70;99.90;;;;;;4995083;28;20206;-94
2023/04/20 13:09:58;;;;;;;2.13;1.27;;;2.70;99.90;;;;;;4993828;28;20238;-91
2023/04/20 13:12:30;;;;;;;2.70;1.10;;;2.70;99.90;;;;;;5006010;28;20210;-91
2023/04/20 13:15:02;;;;;;;3.10;1.23;;;2.70;99.90;;;;;;4995036;28;20216;-91
2023/04/20 13:17:34;;;;;;;2.40;0.90;;;2.70;99.90;;;;;;4994062;28;20234;-92
2023/04/20 13:20:06;;;;;;;1.33;1.10;;;2.80;99.90;;;;;;4980560;28;20217;-91
2023/04/20 13:22:40;;;;;;;2.57;1.07;;;2.80;99.90;;;;;;5014494;28;20197;-92